Time;durP1;ratioP1;P1;durP2;ratioP2;P2;SDS_P1;SDS_P2;PMS_P1;PMS_P2;Temp;Humidity;BMP_temperature;BMP_pressure;BME280_temperature;BME280_humidity;BME280_pressure;Samples;Min_cycle;Max_cycle;Signal;HPM_P1;HPM_P2
2023/01/10 00:00:03;;;;;;;28.10;25.40;;;;;;;4.91;100.00;96871.48;106942;1282;25497;-87
2023/01/10 00:02:52;;;;;;;25.70;23.20;;;;;;;4.90;100.00;96873.61;106795;1282;22487;-87
2023/01/10 00:05:20;;;;;;;27.40;24.80;;;;;;;4.92;100.00;96877.33;107016;1282;22534;-86
2023/01/10 00:07:48;;;;;;;26.70;24.00;;;;;;;4.87;100.00;96878.57;106951;1282;22646;-87
2023/01/10 00:10:16;;;;;;;25.70;23.10;;;;;;;4.86;100.00;96882.42;106794;1282;22596;-87
2023/01/10 00:15:34;;;;;;;25.90;23.50;;;;;;;4.84;100.00;96881.48;107034;1281;22612;-86
2023/01/10 00:18:02;;;;;;;26.80;24.20;;;;;;;4.85;100.00;96885.33;107174;1274;22558;-86
2023/01/10 00:20:31;;;;;;;27.20;24.60;;;;;;;4.86;100.00;96885.85;106981;1281;24234;-87
2023/01/10 00:22:59;;;;;;;26.20;23.70;;;;;;;4.85;100.00;96884.47;107228;1281;22601;-86
2023/01/10 00:25:28;;;;;;;27.60;24.90;;;;;;;4.88;100.00;96888.76;107037;1282;22669;-86
2023/01/10 00:28:09;;;;;;;26.90;24.40;;;;;;;4.90;100.00;96888.10;106935;1282;22578;-86
2023/01/10 00:30:38;;;;;;;27.50;24.60;;;;;;;4.86;100.00;96896.20;107174;1282;22547;-84
2023/01/10 00:33:07;;;;;;;25.60;23.20;;;;;;;4.86;100.00;96895.45;107099;1279;24244;-85
2023/01/10 00:35:35;;;;;;;27.50;24.70;;;;;;;4.89;100.00;96900.80;107113;1282;22583;-84
2023/01/10 00:38:06;;;;;;;28.00;25.20;;;;;;;4.92;100.00;96904.30;107265;1260;24232;-87
2023/01/10 00:40:34;;;;;;;29.10;26.40;;;;;;;4.93;100.00;96905.92;106964;1282;23163;-87
2023/01/10 00:45:49;;;;;;;28.50;25.80;;;;;;;4.89;100.00;96916.88;106941;1282;22572;-83
2023/01/10 00:48:17;;;;;;;28.00;25.30;;;;;;;4.90;100.00;96927.10;106905;1282;22708;-84
2023/01/10 00:50:45;;;;;;;29.60;26.70;;;;;;;4.94;100.00;96928.35;107534;1282;25441;-86
2023/01/10 00:53:13;;;;;;;27.10;24.50;;;;;;;4.94;100.00;96931.49;107526;1282;22557;-86
2023/01/10 00:55:42;;;;;;;29.70;26.90;;;;;;;4.97;100.00;96933.86;106843;1282;25329;-88
2023/01/10 00:58:11;;;;;;;31.50;28.50;;;;;;;4.95;100.00;96935.75;106554;1282;23371;-86
2023/01/10 01:00:40;;;;;;;32.00;29.00;;;;;;;4.97;100.00;96941.34;106802;1282;22655;-88
2023/01/10 01:03:08;;;;;;;32.10;29.00;;;;;;;4.96;100.00;96941.83;106911;1282;23048;-89
2023/01/10 01:05:41;;;;;;;26.40;23.80;;;;;;;4.96;100.00;96945.67;106955;1282;22555;-88
2023/01/10 01:08:11;;;;;;;25.30;23.00;;;;;;;4.96;100.00;96949.58;106853;1282;22606;-88
2023/01/10 01:10:39;;;;;;;25.90;23.50;;;;;;;4.94;100.00;96945.90;106780;1282;22571;-88
2023/01/10 01:13:20;;;;;;;28.30;25.60;;;;;;;4.94;100.00;96953.75;106961;1282;22550;-88
2023/01/10 01:15:49;;;;;;;26.00;23.50;;;;;;;4.96;100.00;96953.84;106920;1282;25335;-88
2023/01/10 01:18:20;;;;;;;24.80;22.50;;;;;;;4.89;100.00;96953.45;106865;1282;24267;-87
2023/01/10 01:20:56;;;;;;;26.90;24.40;;;;;;;4.84;100.00;96952.98;106896;1282;25356;-87
2023/01/10 01:24:16;;;;;;;26.50;24.00;;;;;;;4.83;100.00;96956.55;106854;1282;23229;-87
2023/01/10 01:26:44;;;;;;;25.10;22.70;;;;;;;4.84;100.00;96951.80;106770;1273;22625;-87
2023/01/10 01:29:16;;;;;;;28.00;25.40;;;;;;;4.86;100.00;96957.11;106979;1282;23844;-89
2023/01/10 01:31:45;;;;;;;28.20;25.50;;;;;;;4.88;100.00;96953.93;107004;1282;26730;-88
2023/01/10 01:34:14;;;;;;;26.60;24.10;;;;;;;4.82;100.00;96956.77;106931;1282;22721;-87
2023/01/10 01:36:42;;;;;;;27.00;24.40;;;;;;;4.79;100.00;96957.67;106782;1282;24901;-88
2023/01/10 01:39:11;;;;;;;26.40;24.10;;;;;;;4.78;100.00;96963.98;106778;1282;22781;-88
2023/01/10 01:41:57;;;;;;;28.00;25.40;;;;;;;4.75;100.00;96963.11;106609;1282;27558;-86
2023/01/10 01:44:31;;;;;;;27.00;24.50;;;;;;;4.75;100.00;96964.38;106848;1271;23045;-88
2023/01/10 01:47:06;;;;;;;30.50;27.70;;;;;;;4.78;100.00;96964.84;106590;1282;25281;-86
2023/01/10 01:49:39;;;;;;;29.20;26.60;;;;;;;4.72;100.00;96966.91;106849;1282;22754;-87
2023/01/10 01:52:17;;;;;;;28.10;25.40;;;;;;;4.70;100.00;96964.08;106766;1282;25365;-88
2023/01/10 01:54:45;;;;;;;26.90;24.30;;;;;;;4.69;100.00;96964.66;106800;1282;22557;-90
2023/01/10 01:57:19;;;;;;;28.00;25.60;;;;;;;4.70;100.00;96964.38;106815;1282;22533;-90
2023/01/10 01:59:49;;;;;;;30.40;27.50;;;;;;;4.72;100.00;96971.30;106729;1282;25393;-88
2023/01/10 02:02:31;;;;;;;31.80;28.80;;;;;;;4.73;100.00;96967.55;106849;1282;25434;-88
2023/01/10 02:05:10;;;;;;;30.10;27.40;;;;;;;4.70;100.00;96965.14;106856;1263;25549;-89
2023/01/10 02:07:43;;;;;;;29.30;26.50;;;;;;;4.69;100.00;96969.46;106829;1282;24546;-86
2023/01/10 02:10:24;;;;;;;30.80;27.50;;;;;;;4.67;100.00;96975.68;106617;1282;22539;-85
2023/01/10 02:12:54;;;;;;;30.20;27.40;;;;;;;4.67;100.00;96971.29;106799;1261;24077;-87
2023/01/10 02:15:23;;;;;;;31.60;28.50;;;;;;;4.69;100.00;96974.17;106676;1260;22601;-88
2023/01/10 02:17:51;;;;;;;28.50;25.90;;;;;;;4.64;100.00;96972.98;106745;1282;22544;-86
2023/01/10 02:20:22;;;;;;;28.70;26.10;;;;;;;4.62;100.00;96968.95;106599;1282;22623;-87
2023/01/10 02:23:27;;;;;;;27.30;24.70;;;;;;;4.60;100.00;96978.40;106798;1282;22932;-88
2023/01/10 02:26:15;;;;;;;29.50;26.50;;;;;;;4.56;100.00;96980.15;106655;1282;22543;-86
2023/01/10 02:29:02;;;;;;;28.80;25.80;;;;;;;4.53;100.00;96984.35;108661;1282;22581;-87
2023/01/10 02:31:59;;;;;;;28.20;25.60;;;;;;;4.51;100.00;96988.20;108731;1281;23960;-89
2023/01/10 02:34:38;;;;;;;25.90;23.50;;;;;;;4.51;100.00;96989.70;109441;1282;22510;-88
2023/01/10 02:37:19;;;;;;;27.70;25.00;;;;;;;4.49;100.00;96986.64;109446;1282;22650;-87
2023/01/10 02:40:12;;;;;;;24.50;22.20;;;;;;;4.47;100.00;96993.85;109209;1282;22606;-86
2023/01/10 02:43:00;;;;;;;23.90;21.70;;;;;;;4.46;100.00;96994.17;108535;1282;22600;-85
2023/01/10 02:46:03;;;;;;;24.50;22.10;;;;;;;4.44;100.00;97000.49;107200;1280;26565;-87
2023/01/10 02:48:31;;;;;;;22.70;20.50;;;;;;;4.41;100.00;97006.08;106738;1282;23317;-88
2023/01/10 02:51:27;;;;;;;23.90;21.50;;;;;;;4.39;100.00;97010.72;106668;1282;24387;-87
2023/01/10 02:54:02;;;;;;;22.50;20.30;;;;;;;4.35;100.00;97015.02;106741;1282;25373;-86
2023/01/10 02:56:36;;;;;;;20.90;18.80;;;;;;;4.31;100.00;97018.59;106699;1282;22598;-88
2023/01/10 02:59:38;;;;;;;19.30;17.30;;;;;;;4.31;100.00;97022.85;106839;1282;22738;-87
2023/01/10 03:02:21;;;;;;;18.50;16.60;;;;;;;4.26;100.00;97026.46;106750;1282;25290;-88
2023/01/10 03:05:28;;;;;;;18.20;16.30;;;;;;;4.22;100.00;97030.08;106607;1281;22544;-88
2023/01/10 03:08:24;;;;;;;18.40;16.70;;;;;;;4.20;100.00;97027.96;106762;1282;23303;-87
2023/01/10 03:11:06;;;;;;;19.00;17.10;;;;;;;4.19;100.00;97029.79;106774;1282;22563;-87
2023/01/10 03:13:57;;;;;;;16.90;15.10;;;;;;;4.18;100.00;97036.30;106841;1282;22539;-86
2023/01/10 03:16:28;;;;;;;15.90;14.30;;;;;;;4.16;100.00;97036.73;106592;1282;24131;-85
2023/01/10 03:19:06;;;;;;;14.60;13.10;;;;;;;4.12;100.00;97040.59;106758;1282;22544;-87
2023/01/10 03:21:36;;;;;;;15.90;14.30;;;;;;;4.11;100.00;97046.58;106765;1282;23795;-86
2023/01/10 03:24:12;;;;;;;16.90;15.20;;;;;;;4.12;100.00;97048.91;106794;1282;22583;-86
2023/01/10 03:26:51;;;;;;;15.10;13.50;;;;;;;4.12;100.00;97050.99;106770;1280;25262;-86
2023/01/10 03:29:31;;;;;;;15.50;13.90;;;;;;;4.11;100.00;97059.91;106903;1282;25420;-86
2023/01/10 03:32:04;;;;;;;13.40;12.00;;;;;;;4.10;100.00;97062.58;106863;1282;22666;-86
2023/01/10 03:34:33;;;;;;;14.30;11.80;;;;;;;4.09;100.00;97067.60;106961;1282;24256;-87
2023/01/10 03:37:22;;;;;;;13.10;11.80;;;;;;;4.09;100.00;97070.32;106783;1282;22659;-86
2023/01/10 03:40:14;;;;;;;14.40;13.00;;;;;;;4.07;100.00;97073.36;106910;1260;24087;-85
2023/01/10 03:46:24;;;;;;;15.00;13.60;;;;;;;4.05;100.00;97083.77;107090;1282;26589;-86
2023/01/10 03:48:56;;;;;;;15.10;13.40;;;;;;;4.06;100.00;97087.07;106732;1282;22541;-88
2023/01/10 03:51:27;;;;;;;11.20;10.00;;;;;;;4.05;100.00;97098.06;106740;1282;24320;-87
2023/01/10 03:53:59;;;;;;;10.80;9.50;;;;;;;4.00;100.00;97095.26;106767;1282;25617;-86
2023/01/10 03:56:27;;;;;;;11.80;8.70;;;;;;;3.94;100.00;97099.41;106752;1282;22713;-86
2023/01/10 03:58:55;;;;;;;11.60;9.20;;;;;;;3.90;100.00;97105.98;106862;1282;22576;-87
2023/01/10 04:01:23;;;;;;;12.00;9.50;;;;;;;3.89;100.00;97110.99;106927;1282;22597;-87
2023/01/10 04:03:51;;;;;;;10.90;9.70;;;;;;;3.89;100.00;97111.22;106762;1261;23939;-88
2023/01/10 04:06:19;;;;;;;11.30;9.50;;;;;;;3.88;100.00;97112.55;106652;1282;22656;-87
2023/01/10 04:08:47;;;;;;;12.40;10.80;;;;;;;3.87;100.00;97115.65;106919;1282;22682;-86
2023/01/10 04:11:15;;;;;;;11.60;10.40;;;;;;;3.83;100.00;97113.96;106741;1282;25423;-86
2023/01/10 04:13:43;;;;;;;14.40;12.40;;;;;;;3.85;100.00;97123.86;106858;1282;22719;-87
2023/01/10 04:16:11;;;;;;;15.40;13.30;;;;;;;3.88;100.00;97131.95;106696;1282;22686;-87
2023/01/10 04:18:39;;;;;;;19.90;17.80;;;;;;;3.92;100.00;97134.61;107439;1282;23246;-86
2023/01/10 04:21:08;;;;;;;21.80;19.50;;;;;;;3.95;100.00;97133.68;108260;1282;22534;-89
2023/01/10 04:23:36;;;;;;;18.10;16.30;;;;;;;3.94;100.00;97134.11;106990;1273;22528;-88
2023/01/10 04:26:04;;;;;;;18.90;17.00;;;;;;;3.94;100.00;97129.41;107368;1282;25412;-84
2023/01/10 04:28:32;;;;;;;16.10;14.50;;;;;;;3.92;100.00;97130.88;107037;1282;22577;-86
2023/01/10 04:31:00;;;;;;;13.80;12.40;;;;;;;3.91;100.00;97134.82;106777;1278;24300;-87
2023/01/10 04:33:28;;;;;;;15.50;12.90;;;;;;;3.88;100.00;97141.55;106820;1264;22624;-86
2023/01/10 04:35:56;;;;;;;15.50;13.80;;;;;;;3.89;100.00;97146.17;106683;1282;22618;-87
2023/01/10 04:38:24;;;;;;;17.00;15.40;;;;;;;3.89;100.00;97145.39;106832;1282;22584;-87
2023/01/10 04:40:55;;;;;;;19.50;17.60;;;;;;;3.88;100.00;97146.98;106985;1282;25331;-88
2023/01/10 04:43:24;;;;;;;20.90;18.80;;;;;;;3.89;100.00;97146.98;106589;1282;25502;-87
2023/01/10 04:45:52;;;;;;;21.30;19.30;;;;;;;3.89;100.00;97148.31;106644;1282;22533;-87
2023/01/10 04:48:20;;;;;;;21.70;19.60;;;;;;;3.89;100.00;97152.85;106867;1282;22605;-86
2023/01/10 04:50:52;;;;;;;17.90;16.00;;;;;;;3.89;100.00;97159.45;106734;1282;22818;-87
2023/01/10 04:53:20;;;;;;;15.50;13.70;;;;;;;3.82;100.00;97167.80;106855;1282;23206;-87
2023/01/10 04:55:49;;;;;;;16.20;14.10;;;;;;;3.77;100.00;97169.05;107211;1282;24233;-87
2023/01/10 04:58:17;;;;;;;15.10;13.60;;;;;;;3.75;100.00;97169.91;106851;1282;22585;-87
2023/01/10 05:00:45;;;;;;;15.00;13.50;;;;;;;3.73;100.00;97181.95;106739;1282;23505;-88
2023/01/10 05:03:16;;;;;;;15.30;13.80;;;;;;;3.71;100.00;97183.58;106913;1282;22545;-87
2023/01/10 05:05:44;;;;;;;16.40;14.80;;;;;;;3.67;100.00;97188.85;106695;1280;22544;-88
2023/01/10 05:08:12;;;;;;;14.40;13.00;;;;;;;3.66;100.00;97193.65;106723;1282;25388;-87
2023/01/10 05:10:40;;;;;;;11.40;10.30;;;;;;;3.65;100.00;97195.98;106744;1282;22540;-85
2023/01/10 05:13:08;;;;;;;12.50;11.00;;;;;;;3.64;100.00;97191.46;106834;1282;22556;-86
2023/01/10 05:15:36;;;;;;;11.90;10.50;;;;;;;3.62;100.00;97199.61;106806;1282;25310;-86
2023/01/10 05:18:04;;;;;;;14.50;13.10;;;;;;;3.65;100.00;97198.49;106868;1282;25532;-85
2023/01/10 05:20:32;;;;;;;15.60;14.10;;;;;;;3.65;100.00;97202.34;106775;1282;22555;-85
2023/01/10 05:23:00;;;;;;;16.10;14.40;;;;;;;3.62;100.00;97209.43;106645;1282;22556;-85
2023/01/10 05:25:28;;;;;;;16.80;15.10;;;;;;;3.65;100.00;97210.80;106857;1282;25437;-89
2023/01/10 05:27:56;;;;;;;14.30;12.80;;;;;;;3.69;100.00;97220.17;106854;1282;22553;-88
2023/01/10 05:30:24;;;;;;;12.80;11.10;;;;;;;3.68;100.00;97229.07;106861;1282;23316;-88
2023/01/10 05:32:52;;;;;;;10.60;9.10;;;;;;;3.66;100.00;97231.90;107010;1282;23017;-86
2023/01/10 05:35:20;;;;;;;10.40;8.70;;;;;;;3.62;100.00;97239.00;106835;1282;23035;-86
2023/01/10 05:37:48;;;;;;;9.10;7.40;;;;;;;3.57;100.00;97247.00;106774;1282;25343;-88
2023/01/10 05:40:16;;;;;;;8.40;7.20;;;;;;;3.54;100.00;97252.80;106932;1273;22540;-91
2023/01/10 05:42:44;;;;;;;8.70;7.10;;;;;;;3.54;100.00;97257.50;106705;1282;23968;-90
2023/01/10 05:45:12;;;;;;;8.50;7.60;;;;;;;3.54;100.00;97257.77;106795;1282;22549;-87
2023/01/10 05:47:40;;;;;;;8.50;7.50;;;;;;;3.54;100.00;97258.50;106899;1282;22599;-92
2023/01/10 05:50:09;;;;;;;8.00;7.10;;;;;;;3.55;100.00;97259.84;107198;1282;22557;-90
2023/01/10 05:52:37;;;;;;;9.30;7.40;;;;;;;3.50;100.00;97260.76;107004;1282;22588;-87
2023/01/10 05:55:05;;;;;;;9.00;7.00;;;;;;;3.46;100.00;97265.17;106696;1282;22649;-90
2023/01/10 05:57:34;;;;;;;7.80;6.40;;;;;;;3.41;100.00;97268.48;107236;1260;23910;-91
2023/01/10 06:00:05;;;;;;;9.30;7.20;;;;;;;3.36;100.00;97272.48;106982;1282;22568;-91
2023/01/10 06:02:39;;;;;;;10.20;7.70;;;;;;;3.36;100.00;97274.40;106843;1282;22571;-89
2023/01/10 06:05:07;;;;;;;10.30;7.90;;;;;;;3.35;100.00;97277.44;106871;1282;26087;-91
2023/01/10 06:07:36;;;;;;;11.30;7.60;;;;;;;3.35;100.00;97279.52;108480;1282;22586;-93
2023/01/10 06:10:12;;;;;;;7.70;6.70;;;;;;;3.32;100.00;97289.16;107689;1251;22745;31
2023/01/10 06:12:44;;;;;;;10.40;7.20;;;;;;;3.32;100.00;97291.66;107674;1286;22794;-86
2023/01/10 06:15:12;;;;;;;9.90;6.80;;;;;;;3.28;100.00;97301.62;108750;1285;24243;-88
2023/01/10 06:17:40;;;;;;;8.40;6.00;;;;;;;3.28;100.00;97302.48;107202;1276;23961;-91
2023/01/10 06:20:10;;;;;;;10.50;7.10;;;;;;;3.27;100.00;97305.30;107382;1285;22570;-92
2023/01/10 06:22:41;;;;;;;10.60;7.50;;;;;;;3.28;100.00;97307.04;107764;1285;22624;-90
2023/01/10 06:25:12;;;;;;;10.80;7.80;;;;;;;3.29;100.00;97310.30;106883;1285;25434;-89
2023/01/10 06:27:41;;;;;;;13.80;8.90;;;;;;;3.27;100.00;97311.95;108447;1254;23310;-90
2023/01/10 06:30:12;;;;;;;13.30;9.20;;;;;;;3.27;100.00;97314.98;108254;1277;22518;-88
2023/01/10 06:32:41;;;;;;;13.30;8.50;;;;;;;3.27;100.00;97320.48;107640;1254;23934;-92
2023/01/10 06:35:09;;;;;;;11.10;7.90;;;;;;;3.29;100.00;97327.44;107639;1277;22998;-88
2023/01/10 06:37:38;;;;;;;13.90;8.80;;;;;;;3.28;100.00;97332.50;107365;1277;22825;-90
2023/01/10 06:40:06;;;;;;;12.90;9.40;;;;;;;3.31;100.00;97339.48;107325;1277;22744;-89
2023/01/10 06:42:34;;;;;;;13.20;9.30;;;;;;;3.32;100.00;97344.91;107264;1277;22530;-88
2023/01/10 06:45:43;;;;;;;14.20;10.50;;;;;;;3.35;100.00;97351.36;107221;1277;22556;-89
2023/01/10 06:49:32;;;;;;;14.70;10.60;;;;;;;3.34;100.00;97359.89;107220;1259;22553;-88
2023/01/10 06:52:40;;;;;;;11.50;7.80;;;;;;;3.38;100.00;97360.58;106861;1282;22667;-89
2023/01/10 06:55:09;;;;;;;11.80;9.40;;;;;;;3.41;100.00;97360.74;106628;1282;23229;-88
2023/01/10 06:57:37;;;;;;;13.40;9.10;;;;;;;3.42;100.00;97362.81;106760;1282;22758;-88
2023/01/10 07:00:08;;;;;;;11.10;9.70;;;;;;;3.41;100.00;97367.24;106781;1280;24276;-88
2023/01/10 07:02:36;;;;;;;10.80;9.00;;;;;;;3.43;100.00;97368.30;106753;1282;25274;-88
2023/01/10 07:05:05;;;;;;;11.40;9.40;;;;;;;3.43;100.00;97373.27;106926;1282;25440;-88
2023/01/10 07:07:33;;;;;;;12.00;8.70;;;;;;;3.39;100.00;97368.09;107486;1282;22629;-89
2023/01/10 07:10:01;;;;;;;9.80;7.50;;;;;;;3.38;100.00;97369.21;107157;1278;24294;-88
2023/01/10 07:12:29;;;;;;;11.70;10.10;;;;;;;3.36;100.00;97367.02;106915;1278;22593;-89
2023/01/10 07:14:57;;;;;;;11.80;10.70;;;;;;;3.33;100.00;97367.07;106965;1278;25546;-88
2023/01/10 07:17:24;;;;;;;12.40;10.60;;;;;;;3.31;100.00;97369.84;107018;1278;22541;-89
2023/01/10 07:19:52;;;;;;;11.90;10.50;;;;;;;3.32;100.00;97370.27;107130;1278;25354;-89
2023/01/10 07:22:21;;;;;;;11.30;10.10;;;;;;;3.34;100.00;97371.91;106983;1278;22530;-90
2023/01/10 07:24:49;;;;;;;10.80;9.60;;;;;;;3.34;100.00;97373.94;107092;1278;22567;-89
2023/01/10 07:27:16;;;;;;;12.40;10.70;;;;;;;3.30;100.00;97373.88;106997;1278;22541;-88
2023/01/10 07:29:47;;;;;;;12.00;10.40;;;;;;;3.27;100.00;97381.06;106941;1278;25306;-88
2023/01/10 07:32:15;;;;;;;11.00;9.70;;;;;;;3.26;100.00;97383.58;107240;1278;22647;-88
2023/01/10 07:34:42;;;;;;;11.80;10.20;;;;;;;3.25;100.00;97382.92;107328;1278;22572;-90
2023/01/10 07:37:11;;;;;;;11.50;10.40;;;;;;;3.24;100.00;97388.04;107263;1274;26751;-90
2023/01/10 07:39:41;;;;;;;14.80;11.80;;;;;;;3.24;100.00;97391.83;106980;1278;176785;-89
2023/01/10 07:42:09;;;;;;;12.60;10.40;;;;;;;3.26;100.00;97395.30;107153;1278;22543;-89
2023/01/10 07:44:37;;;;;;;12.60;11.30;;;;;;;3.31;100.00;97400.19;106966;1278;24183;-87
2023/01/10 07:47:06;;;;;;;15.40;13.10;;;;;;;3.31;100.00;97402.48;106860;1278;22528;-87
2023/01/10 07:49:34;;;;;;;13.90;12.40;;;;;;;3.31;100.00;97401.48;106889;1278;22587;-89
2023/01/10 07:52:02;;;;;;;15.70;12.60;;;;;;;3.30;100.00;97403.18;107268;1273;22545;-89
2023/01/10 07:54:30;;;;;;;14.00;12.60;;;;;;;3.34;100.00;97401.09;107185;1279;23453;-88
2023/01/10 07:56:58;;;;;;;12.70;11.40;;;;;;;3.37;100.00;97403.45;107141;1278;25492;-87
2023/01/10 07:59:26;;;;;;;13.10;11.60;;;;;;;3.34;100.00;97401.96;107318;1272;23943;-87
2023/01/10 08:01:57;;;;;;;13.80;12.40;;;;;;;3.31;100.00;97404.88;107490;1278;22670;-89
2023/01/10 08:04:25;;;;;;;13.40;12.10;;;;;;;3.29;100.00;97413.02;108646;1277;24186;-86
2023/01/10 08:06:54;;;;;;;14.00;12.60;;;;;;;3.31;100.00;97413.88;107949;1278;22526;-88
2023/01/10 08:09:22;;;;;;;13.50;12.10;;;;;;;3.32;100.00;97420.80;107218;1279;22576;-88
2023/01/10 08:11:50;;;;;;;13.40;12.00;;;;;;;3.33;100.00;97418.46;107096;1279;22759;-87
2023/01/10 08:14:18;;;;;;;14.00;12.60;;;;;;;3.31;100.00;97420.22;107416;1276;24109;-88
2023/01/10 08:16:46;;;;;;;13.80;11.70;;;;;;;3.31;100.00;97429.91;107308;1277;22531;-87
2023/01/10 08:19:16;;;;;;;13.40;12.00;;;;;;;3.31;100.00;97434.70;107596;1266;22648;-88
2023/01/10 08:21:45;;;;;;;14.70;13.00;;;;;;;3.34;100.00;97441.47;108410;1277;22580;-87
2023/01/10 08:24:13;;;;;;;15.50;13.50;;;;;;;3.37;100.00;97443.87;109919;1272;22553;-86
2023/01/10 08:26:41;;;;;;;14.20;12.90;;;;;;;3.39;100.00;97447.35;109600;1278;22796;-87
2023/01/10 08:29:09;;;;;;;14.30;12.90;;;;;;;3.42;100.00;97447.83;109467;1277;22569;-88
2023/01/10 08:31:40;;;;;;;15.10;13.40;;;;;;;3.44;100.00;97446.17;108169;1277;22591;-87
2023/01/10 08:34:12;;;;;;;15.20;13.60;;;;;;;3.43;100.00;97448.31;108403;1273;22711;-87
2023/01/10 08:36:40;;;;;;;14.70;13.10;;;;;;;3.44;100.00;97452.73;108265;1276;22624;-86
2023/01/10 08:39:08;;;;;;;13.90;12.10;;;;;;;3.40;100.00;97452.19;108676;1277;22527;-85
2023/01/10 08:41:38;;;;;;;14.30;12.20;;;;;;;3.38;100.00;97458.16;108409;1278;22546;-85
2023/01/10 08:44:06;;;;;;;13.10;11.50;;;;;;;3.35;100.00;97459.70;108380;1278;22646;-86
2023/01/10 08:46:34;;;;;;;12.90;11.30;;;;;;;3.34;100.00;97462.46;108616;1277;22548;-86
2023/01/10 08:49:02;;;;;;;16.30;12.00;;;;;;;3.35;100.00;97467.42;107348;1275;22766;-87
2023/01/10 08:51:30;;;;;;;12.40;11.10;;;;;;;3.39;100.00;97471.89;107006;1278;22672;-86
2023/01/10 08:53:58;;;;;;;12.00;10.80;;;;;;;3.37;100.00;97476.59;107283;1273;25386;-87
2023/01/10 08:56:26;;;;;;;11.00;9.90;;;;;;;3.36;100.00;97479.62;107255;1275;23935;-88
2023/01/10 08:58:54;;;;;;;12.00;10.90;;;;;;;3.34;100.00;97489.62;107240;1278;22555;-86
2023/01/10 09:01:22;;;;;;;13.60;10.40;;;;;;;3.35;100.00;97497.08;107210;1278;22517;-86
2023/01/10 09:04:43;;;;;;;12.00;10.50;;;;;;;3.41;100.00;97506.37;107449;1278;25351;-84
2023/01/10 09:07:11;;;;;;;12.00;10.80;;;;;;;3.39;100.00;97516.85;107243;1279;25332;-87
2023/01/10 09:09:39;;;;;;;11.80;10.00;;;;;;;3.42;100.00;97519.90;107285;1279;22580;-87
2023/01/10 09:12:53;;;;;;;11.50;10.30;;;;;;;3.45;100.00;97521.35;107195;1278;22540;-88
2023/01/10 09:14:55;;;;;;;12.30;11.10;;;;;;;3.46;100.00;97521.30;107141;1277;22534;-87
2023/01/10 09:17:23;;;;;;;12.90;10.90;;;;;;;3.44;100.00;97518.84;107217;1278;25037;-86
2023/01/10 09:19:51;;;;;;;12.10;10.00;;;;;;;3.43;100.00;97520.27;107174;1278;22666;-88
2023/01/10 09:22:19;;;;;;;11.60;9.80;;;;;;;3.46;100.00;97518.37;107560;1257;24351;-86
2023/01/10 09:24:47;;;;;;;11.60;9.60;;;;;;;3.44;100.00;97530.55;107372;1266;22657;-87
2023/01/10 09:27:15;;;;;;;13.10;10.60;;;;;;;3.44;100.00;97539.95;107290;1279;22535;-86
2023/01/10 09:29:43;;;;;;;13.30;11.50;;;;;;;3.44;100.00;97550.22;107296;1273;26593;-88
2023/01/10 09:32:11;;;;;;;15.80;11.70;;;;;;;3.48;100.00;97550.92;107342;1277;24193;-88
2023/01/10 09:34:39;;;;;;;19.80;14.30;;;;;;;3.46;100.00;97548.79;107174;1261;24362;-88
2023/01/10 09:37:07;;;;;;;18.50;14.30;;;;;;;3.48;100.00;97548.21;107194;1278;24351;-86
2023/01/10 09:39:35;;;;;;;15.80;13.80;;;;;;;3.52;100.00;97550.02;107973;1279;22774;-89
2023/01/10 09:42:48;;;;;;;15.50;13.70;;;;;;;3.55;100.00;97554.94;106987;1278;23030;-87
2023/01/10 09:45:26;;;;;;;14.50;12.10;;;;;;;3.55;100.00;97559.58;106870;1278;24268;-85
2023/01/10 09:48:03;;;;;;;15.70;12.00;;;;;;;3.52;100.00;97562.77;107035;1278;22573;-85
2023/01/10 09:50:54;;;;;;;13.80;11.30;;;;;;;3.50;100.00;97572.63;107278;1277;24399;-86
2023/01/10 09:53:26;;;;;;;12.60;11.30;;;;;;;3.53;100.00;97570.23;107111;1278;25568;-87
2023/01/10 09:55:58;;;;;;;12.40;10.80;;;;;;;3.55;100.00;97572.90;107075;1278;22619;-85
2023/01/10 09:58:30;;;;;;;13.20;10.70;;;;;;;3.55;100.00;97578.17;106977;1278;23936;-85
2023/01/10 10:01:03;;;;;;;12.40;10.80;;;;;;;3.58;100.00;97578.45;107161;1278;22666;-86
2023/01/10 10:03:53;;;;;;;11.30;10.10;;;;;;;3.54;100.00;97576.63;107071;1279;24366;-88
2023/01/10 10:06:22;;;;;;;12.90;10.90;;;;;;;3.51;100.00;97581.41;107152;1278;22529;-86
2023/01/10 10:08:52;;;;;;;14.40;12.70;;;;;;;3.55;100.00;97583.92;107187;1278;23903;-86
2023/01/10 10:11:25;;;;;;;13.40;11.70;;;;;;;3.56;100.00;97585.64;107178;1278;22598;-87
2023/01/10 10:13:59;;;;;;;14.70;12.60;;;;;;;3.54;100.00;97588.45;107106;1278;24586;-85
2023/01/10 10:16:53;;;;;;;14.50;13.00;;;;;;;3.51;100.00;97590.67;106983;1278;25294;-88
2023/01/10 10:19:26;;;;;;;19.80;16.40;;;;;;;3.50;100.00;97589.61;107211;1278;22563;-87
2023/01/10 10:22:11;;;;;;;18.70;16.80;;;;;;;3.52;100.00;97587.11;107263;1278;22549;-87
2023/01/10 10:25:02;;;;;;;;;;;;;;;3.52;100.00;97591.48;107249;1278;25345;-86
2023/01/10 10:27:40;;;;;;;13.70;12.40;;;;;;;3.53;100.00;97600.64;106752;1286;25326;-87
2023/01/10 10:30:15;;;;;;;15.10;13.40;;;;;;;3.52;100.00;97605.44;106644;1286;22547;-87
2023/01/10 10:32:55;;;;;;;10.80;9.70;;;;;;;3.50;100.00;97608.75;106668;1280;22673;-86
2023/01/10 10:35:39;;;;;;;10.20;8.70;;;;;;;3.47;100.00;97607.52;106657;1285;22685;-86
2023/01/10 10:38:13;;;;;;;10.40;9.30;;;;;;;3.50;100.00;97609.43;106831;1285;23537;-86
2023/01/10 10:40:43;;;;;;;11.50;10.30;;;;;;;3.51;100.00;97611.67;106726;1282;22547;-87
2023/01/10 10:43:20;;;;;;;11.80;10.40;;;;;;;3.51;100.00;97616.30;106732;1285;25438;-86
2023/01/10 10:45:56;;;;;;;11.80;10.20;;;;;;;3.52;100.00;97620.09;106713;1286;22561;-85
2023/01/10 10:48:29;;;;;;;9.50;8.30;;;;;;;3.52;100.00;97621.85;106742;1285;22573;-86
2023/01/10 10:51:01;;;;;;;10.30;8.40;;;;;;;3.52;100.00;97620.89;106650;1285;24274;-88
2023/01/10 10:53:31;;;;;;;11.60;9.40;;;;;;;3.52;100.00;97623.13;106638;1286;23335;-88
2023/01/10 10:56:05;;;;;;;12.60;11.30;;;;;;;3.55;100.00;97626.65;106878;1286;25434;-87
2023/01/10 10:58:33;;;;;;;12.90;11.50;;;;;;;3.58;100.00;97627.69;106658;1285;22665;-85
2023/01/10 11:01:01;;;;;;;13.80;12.40;;;;;;;3.60;100.00;97628.82;106715;1285;23340;-87
2023/01/10 11:03:53;;;;;;;12.60;11.30;;;;;;;3.62;100.00;97632.82;106651;1286;25261;-86
2023/01/10 11:06:24;;;;;;;12.80;11.40;;;;;;;3.67;100.00;97631.49;107028;1279;22586;-87
2023/01/10 11:08:56;;;;;;;13.90;12.40;;;;;;;3.70;100.00;97634.29;106977;1279;22546;-87
2023/01/10 11:11:32;;;;;;;17.10;15.30;;;;;;;3.72;100.00;97636.96;107052;1279;25310;-87
2023/01/10 11:14:04;;;;;;;20.00;18.10;;;;;;;3.74;100.00;97637.25;107217;1279;22532;-86
2023/01/10 11:16:38;;;;;;;19.90;17.80;;;;;;;3.75;100.00;97639.20;107075;1279;24269;-86
2023/01/10 11:19:31;;;;;;;21.80;19.50;;;;;;;3.78;100.00;97637.89;107804;1278;22580;-84
2023/01/10 11:22:04;;;;;;;33.40;30.20;;;;;;;3.82;100.00;97637.96;107499;1277;22561;-85
2023/01/10 11:24:34;;;;;;;24.30;21.80;;;;;;;3.81;100.00;97638.96;107170;1278;22538;-86
2023/01/10 11:27:41;;;;;;;24.00;21.70;;;;;;;3.82;100.00;97643.63;107323;1277;24729;-87
2023/01/10 11:30:19;;;;;;;25.40;23.10;;;;;;;3.79;100.00;97652.87;107153;1278;22845;-87
2023/01/10 11:32:52;;;;;;;37.80;30.10;;;;;;;3.82;100.00;97660.51;107815;1277;24196;-87
2023/01/10 11:35:31;;;;;;;32.70;29.10;;;;;;;3.85;100.00;97663.44;107861;1277;22577;-87
2023/01/10 11:38:29;;;;;;;30.60;25.10;;;;;;;3.89;100.00;97666.51;107457;1277;26550;-87
2023/01/10 11:41:52;;;;;;;34.90;31.00;;;;;;;3.89;100.00;97675.08;107376;1277;22527;-87
2023/01/10 11:44:28;;;;;;;37.00;33.40;;;;;;;3.93;100.00;97677.71;107702;1276;22574;-87
2023/01/10 11:47:00;;;;;;;29.90;26.90;;;;;;;3.96;100.00;97680.23;107235;1277;22550;-88
2023/01/10 11:49:37;;;;;;;30.90;28.00;;;;;;;3.93;100.00;97683.21;107169;1278;23755;-86